createdAt,value
2019-05-11T00:01:47.087Z,0
2019-05-11T00:02:27.654Z,0
2019-05-11T00:03:08.238Z,0
2019-05-11T00:03:48.818Z,0
2019-05-11T00:04:29.496Z,0
2019-05-11T00:05:10.034Z,0
2019-05-11T00:05:50.630Z,0
2019-05-11T00:06:31.163Z,0
2019-05-11T00:07:11.714Z,0
2019-05-11T00:07:52.287Z,0
2019-05-11T00:13:16.899Z,0
2019-05-11T00:13:57.495Z,0
2019-05-11T00:14:38.050Z,0
2019-05-11T00:15:18.621Z,0
2019-05-11T00:15:59.190Z,0
2019-05-11T00:16:39.795Z,0
2019-05-11T00:17:20.376Z,0
2019-05-11T00:18:00.949Z,0
2019-05-11T00:18:41.481Z,0
2019-05-11T00:19:22.049Z,0
2019-05-11T00:20:02.936Z,0
2019-05-11T00:20:43.177Z,0
2019-05-11T00:21:23.785Z,0
2019-05-11T00:22:04.356Z,0
2019-05-11T00:25:27.175Z,0
2019-05-11T00:26:07.739Z,0
2019-05-11T00:26:48.307Z,0
2019-05-11T00:27:28.882Z,0
2019-05-11T00:28:09.476Z,0
2019-05-11T00:28:50.024Z,0
2019-05-11T00:29:30.583Z,0
2019-05-11T00:30:11.171Z,0
2019-05-11T00:30:51.773Z,0
2019-05-11T00:31:32.373Z,0
2019-05-11T00:36:57.035Z,0
2019-05-11T00:37:37.598Z,0
2019-05-11T00:38:18.189Z,0
2019-05-11T00:38:58.752Z,0
2019-05-11T00:39:39.312Z,0
2019-05-11T00:40:19.855Z,0
2019-05-11T00:41:00.413Z,0
2019-05-11T00:41:40.977Z,0
2019-05-11T00:42:21.567Z,0
2019-05-11T00:43:02.179Z,0
2019-05-11T00:49:07.349Z,0
2019-05-11T00:49:47.908Z,0
2019-05-11T00:50:38.450Z,0
2019-05-11T00:51:09.035Z,0
2019-05-11T00:51:49.637Z,0
2019-05-11T00:52:30.188Z,0
2019-05-11T00:53:10.761Z,0
2019-05-11T00:53:51.404Z,0
2019-05-11T00:54:31.964Z,0
2019-05-11T01:00:37.263Z,0
2019-05-11T01:01:17.842Z,0
2019-05-11T01:01:58.440Z,0
2019-05-11T01:02:39.035Z,0
2019-05-11T01:03:19.597Z,0
2019-05-11T01:04:00.187Z,0
2019-05-11T01:04:40.752Z,0
2019-05-11T01:05:21.337Z,0
2019-05-11T01:06:01.867Z,0
2019-05-11T01:12:06.962Z,0
2019-05-11T01:12:47.607Z,0
2019-05-11T01:13:28.115Z,0
2019-05-11T01:14:08.680Z,0
2019-05-11T01:14:49.232Z,0
2019-05-11T01:15:29.807Z,0
2019-05-11T01:16:10.505Z,0
2019-05-11T01:19:24.393Z,0
2019-05-11T01:20:05.014Z,0
2019-05-11T01:20:45.522Z,0
2019-05-11T01:21:26.087Z,0
2019-05-11T01:22:06.678Z,0
2019-05-11T01:22:47.245Z,0
2019-05-11T01:23:27.831Z,0
2019-05-11T01:24:08.393Z,0
2019-05-11T01:24:48.950Z,0
2019-05-11T01:30:54.116Z,0
2019-05-11T01:31:34.711Z,0
2019-05-11T01:32:15.250Z,0
2019-05-11T01:32:55.802Z,0
2019-05-11T01:33:36.418Z,0
2019-05-11T01:34:16.988Z,0
2019-05-11T01:34:57.561Z,0
2019-05-11T01:35:38.116Z,0
2019-05-11T01:36:18.691Z,0
2019-05-11T01:36:59.265Z,0
2019-05-11T01:43:04.369Z,0
2019-05-11T01:43:44.924Z,0
2019-05-11T01:44:25.487Z,0
2019-05-11T01:45:06.060Z,0
2019-05-11T01:45:46.640Z,0
2019-05-11T01:46:27.212Z,0
2019-05-11T01:47:07.852Z,0
2019-05-11T01:47:48.414Z,0
2019-05-11T01:48:28.966Z,0
2019-05-11T01:55:14.583Z,0
2019-05-11T01:55:55.175Z,0
2019-05-11T01:56:35.737Z,0
2019-05-11T01:57:16.314Z,0
2019-05-11T01:57:56.920Z,0
2019-05-11T01:58:37.486Z,0
2019-05-11T01:59:18.055Z,0
2019-05-11T01:59:58.640Z,0
2019-05-11T02:00:39.215Z,0
2019-05-11T02:06:44.365Z,0
2019-05-11T02:07:25.032Z,0
2019-05-11T02:08:05.590Z,0
2019-05-11T02:08:46.142Z,0
2019-05-11T02:09:26.726Z,0
2019-05-11T02:10:07.300Z,0
2019-05-11T02:10:47.889Z,0
2019-05-11T02:11:28.458Z,0
2019-05-11T02:12:09.055Z,0
2019-05-11T02:18:14.335Z,0
2019-05-11T02:18:54.918Z,0
2019-05-11T02:19:35.534Z,0
2019-05-11T02:20:16.086Z,0
2019-05-11T02:20:56.644Z,0
2019-05-11T02:21:37.237Z,0
2019-05-11T02:22:17.819Z,0
2019-05-11T02:22:58.405Z,0
2019-05-11T02:23:38.974Z,0
2019-05-11T02:29:44.175Z,0
2019-05-11T02:30:24.735Z,0
2019-05-11T02:31:05.314Z,0
2019-05-11T02:31:45.895Z,0
2019-05-11T02:32:26.468Z,0
2019-05-11T02:33:07.098Z,0
2019-05-11T02:33:47.665Z,0
2019-05-11T02:34:28.240Z,0
2019-05-11T02:35:08.802Z,0
2019-05-11T02:35:49.393Z,0
2019-05-11T02:41:54.529Z,0
2019-05-11T02:42:35.108Z,0
2019-05-11T02:43:15.644Z,0
2019-05-11T02:43:56.196Z,4
2019-05-11T02:44:36.762Z,4
2019-05-11T02:45:17.327Z,4
2019-05-11T02:45:57.899Z,4
2019-05-11T02:46:38.544Z,0
2019-05-11T02:47:19.087Z,0
2019-05-11T02:53:24.278Z,4
2019-05-11T02:54:04.839Z,4
2019-05-11T02:54:45.401Z,4
2019-05-11T02:55:25.964Z,4
2019-05-11T02:56:06.580Z,8
2019-05-11T02:56:47.129Z,8
2019-05-11T02:57:27.701Z,8
2019-05-11T02:58:08.254Z,8
2019-05-11T02:58:48.818Z,8
2019-05-11T02:59:30.061Z,12
2019-05-11T03:05:36.414Z,24
2019-05-11T03:06:17.003Z,24
2019-05-11T03:06:57.586Z,28
2019-05-11T03:07:38.161Z,28
2019-05-11T03:08:18.813Z,28
2019-05-11T03:08:59.335Z,28
2019-05-11T03:15:04.515Z,56
2019-05-11T03:15:45.122Z,60
2019-05-11T03:16:25.660Z,64
2019-05-11T03:17:06.257Z,72
2019-05-11T03:17:46.795Z,80
2019-05-11T03:18:27.364Z,80
2019-05-11T03:19:07.945Z,88
2019-05-11T03:19:48.526Z,96
2019-05-11T03:20:29.132Z,100
2019-05-11T03:26:34.175Z,152
2019-05-11T03:27:14.747Z,156
2019-05-11T03:27:55.313Z,164
2019-05-11T03:28:35.884Z,172
2019-05-11T03:29:16.486Z,176
2019-05-11T03:30:00.458Z,188
2019-05-11T03:30:37.675Z,192
2019-05-11T03:31:18.233Z,208
2019-05-11T03:31:58.823Z,220
2019-05-11T03:32:39.405Z,240
2019-05-11T03:38:44.608Z,280
2019-05-11T03:39:25.177Z,304
2019-05-11T03:40:05.808Z,336
2019-05-11T03:40:46.401Z,360
2019-05-11T03:41:27.006Z,384
2019-05-11T03:42:14.406Z,396
2019-05-11T03:42:48.235Z,412
2019-05-11T03:43:28.805Z,440
2019-05-11T03:44:09.351Z,472
2019-05-11T03:50:14.528Z,300
2019-05-11T03:50:55.115Z,284
2019-05-11T03:51:35.755Z,268
2019-05-11T03:52:16.286Z,260
2019-05-11T03:52:56.903Z,256
2019-05-11T03:53:37.448Z,256
2019-05-11T03:54:18.039Z,260
2019-05-11T03:54:58.677Z,272
2019-05-11T03:55:39.219Z,284
2019-05-11T04:02:41.470Z,284
2019-05-11T04:03:22.048Z,276
2019-05-11T04:04:02.620Z,276
2019-05-11T04:04:43.196Z,272
2019-05-11T04:05:23.744Z,272
2019-05-11T04:06:04.335Z,272
2019-05-11T04:06:44.865Z,272
2019-05-11T04:07:25.436Z,276
2019-05-11T04:08:06.046Z,276
2019-05-11T04:14:11.138Z,324
2019-05-11T04:14:51.696Z,324
2019-05-11T04:15:32.249Z,332
2019-05-11T04:16:12.820Z,340
2019-05-11T04:16:53.385Z,348
2019-05-11T04:17:33.945Z,356
2019-05-11T04:18:14.511Z,364
2019-05-11T04:18:55.082Z,380
2019-05-11T04:19:35.645Z,400
2019-05-11T04:20:16.217Z,420
2019-05-11T04:26:21.270Z,688
2019-05-11T04:27:01.826Z,728
2019-05-11T04:27:42.380Z,780
2019-05-11T04:28:22.936Z,832
2019-05-11T04:29:03.505Z,884
2019-05-11T04:29:44.064Z,932
2019-05-11T04:30:24.621Z,980
2019-05-11T04:31:05.223Z,1012
2019-05-11T04:31:45.774Z,1036
2019-05-11T04:32:26.354Z,1056
2019-05-11T04:38:31.505Z,1000
2019-05-11T04:39:12.053Z,976
2019-05-11T04:39:52.600Z,968
2019-05-11T04:40:33.177Z,952
2019-05-11T04:41:13.779Z,936
2019-05-11T04:41:54.331Z,920
2019-05-11T04:42:53.157Z,928
2019-05-11T04:43:15.502Z,940
2019-05-11T04:43:56.075Z,968
2019-05-11T04:50:01.198Z,1208
2019-05-11T04:50:41.756Z,1252
2019-05-11T04:51:22.319Z,1304
2019-05-11T04:52:02.864Z,1368
2019-05-11T04:52:43.441Z,1448
2019-05-11T04:53:24.002Z,1544
2019-05-11T04:54:04.576Z,1680
2019-05-11T04:54:45.128Z,1876
2019-05-11T04:55:25.700Z,2076
2019-05-11T04:56:06.262Z,2276
2019-05-11T05:02:11.389Z,2968
2019-05-11T05:02:51.955Z,2996
2019-05-11T05:03:40.605Z,3008
2019-05-11T05:04:14.334Z,3012
2019-05-11T05:04:53.693Z,2944
2019-05-11T05:05:34.272Z,2912
2019-05-11T05:06:24.296Z,2968
2019-05-11T05:09:28.858Z,3892
2019-05-11T05:10:13.863Z,3912
2019-05-11T05:10:52.277Z,3916
2019-05-11T05:11:36.106Z,4000
2019-05-11T05:12:13.906Z,4184
2019-05-11T05:12:53.285Z,4440
2019-05-11T05:13:32.130Z,4760
2019-05-11T05:14:12.703Z,5060
2019-05-11T05:14:53.258Z,5288
2019-05-11T05:15:33.843Z,5556
2019-05-11T05:21:38.897Z,5656
2019-05-11T05:22:19.504Z,5748
2019-05-11T05:23:00.037Z,5848
2019-05-11T05:23:40.640Z,5936
2019-05-11T05:24:21.212Z,6052
2019-05-11T05:25:01.786Z,6208
2019-05-11T05:25:42.327Z,6464
2019-05-11T05:26:22.918Z,6792
2019-05-11T05:27:03.480Z,7172
2019-05-11T05:33:08.769Z,13904
2019-05-11T05:33:49.388Z,16416
2019-05-11T05:34:29.941Z,6084
2019-05-11T05:35:10.521Z,6296
2019-05-11T05:35:51.161Z,6392
2019-05-11T05:36:31.722Z,13296
2019-05-11T05:37:12.334Z,6736
2019-05-11T05:37:52.905Z,5744
2019-05-11T05:38:33.467Z,5964
2019-05-11T05:44:38.810Z,7680
2019-05-11T05:45:19.396Z,9904
2019-05-11T05:45:59.988Z,8848
2019-05-11T05:46:40.559Z,7408
2019-05-11T05:47:21.162Z,7280
2019-05-11T05:48:01.784Z,7204
2019-05-11T05:48:42.331Z,7744
2019-05-11T05:49:22.900Z,8408
2019-05-11T05:50:03.513Z,8732
2019-05-11T05:56:08.771Z,42112
2019-05-11T05:56:49.346Z,27136
2019-05-11T05:57:29.893Z,24992
2019-05-11T05:58:10.479Z,20672
2019-05-11T05:58:51.070Z,15504
2019-05-11T05:59:31.683Z,26816
2019-05-11T06:00:12.286Z,33184
2019-05-11T06:00:52.865Z,34400
2019-05-11T06:01:33.435Z,23168
2019-05-11T06:07:38.702Z,9904
2019-05-11T06:08:19.291Z,9848
2019-05-11T06:08:59.887Z,10920
2019-05-11T06:09:40.449Z,14644
2019-05-11T06:10:21.029Z,13580
2019-05-11T06:11:01.614Z,15908
2019-05-11T06:11:42.183Z,21088
2019-05-11T06:12:22.751Z,14568
2019-05-11T06:13:03.343Z,13268
2019-05-11T06:19:08.710Z,14728
2019-05-11T06:19:49.254Z,22496
2019-05-11T06:20:29.802Z,15168
2019-05-11T06:21:10.408Z,14372
2019-05-11T06:21:51.010Z,14056
2019-05-11T06:22:31.566Z,15496
2019-05-11T06:23:12.151Z,19232
2019-05-11T06:23:52.708Z,31680
2019-05-11T06:24:33.256Z,16896
2019-05-11T06:25:13.831Z,17664
2019-05-11T06:30:38.486Z,69504
2019-05-11T06:31:19.036Z,71296
2019-05-11T06:31:59.614Z,75040
2019-05-11T06:32:40.186Z,74816
2019-05-11T06:33:20.759Z,71712
2019-05-11T06:34:01.345Z,71168
2019-05-11T06:34:41.909Z,72736
2019-05-11T06:35:22.844Z,75808
2019-05-11T06:36:03.051Z,67232
2019-05-11T06:36:43.610Z,75168
2019-05-11T06:42:48.867Z,74432
2019-05-11T06:43:29.450Z,76832
2019-05-11T06:44:10.010Z,78048
2019-05-11T06:44:50.605Z,77632
2019-05-11T06:45:31.160Z,78848
2019-05-11T06:46:11.757Z,79520
2019-05-11T06:46:52.314Z,79616
2019-05-11T06:47:32.907Z,78912
2019-05-11T06:48:13.537Z,79200
2019-05-11T06:54:18.628Z,77120
2019-05-11T06:54:59.218Z,74656
2019-05-11T06:55:39.802Z,72928
2019-05-11T06:56:20.401Z,72352
2019-05-11T06:57:00.975Z,70464
2019-05-11T06:57:41.541Z,70144
2019-05-11T06:58:22.110Z,68576
2019-05-11T06:59:02.690Z,63424
2019-05-11T06:59:43.298Z,63936
2019-05-11T07:05:48.612Z,61856
2019-05-11T07:06:30.585Z,62304
2019-05-11T07:07:09.808Z,64544
2019-05-11T07:07:50.368Z,62976
2019-05-11T07:08:30.943Z,61504
2019-05-11T07:09:11.521Z,60736
2019-05-11T07:09:52.149Z,59744
2019-05-11T07:10:32.696Z,58496
2019-05-11T07:11:13.286Z,57952
2019-05-11T07:11:53.888Z,58400
2019-05-11T07:17:18.562Z,70144
2019-05-11T07:17:59.104Z,74784
2019-05-11T07:18:39.687Z,72672
2019-05-11T07:19:20.249Z,75072
2019-05-11T07:20:00.915Z,73760
2019-05-11T07:20:49.818Z,72928
2019-05-11T07:21:22.052Z,73312
2019-05-11T07:22:02.608Z,76928
2019-05-11T07:22:43.163Z,80288
2019-05-11T07:23:23.747Z,79008
2019-05-11T07:29:28.983Z,87168
2019-05-11T07:30:09.546Z,85312
2019-05-11T07:30:50.149Z,85472
2019-05-11T07:31:30.723Z,81536
2019-05-11T07:32:21.763Z,89440
2019-05-11T07:32:51.859Z,90016
2019-05-11T07:33:32.434Z,87840
2019-05-11T07:34:12.988Z,86976
2019-05-11T07:34:53.565Z,85376
2019-05-11T07:39:40.323Z,82496
2019-05-11T07:40:21.832Z,77920
2019-05-11T07:41:02.908Z,75168
2019-05-11T07:41:44.149Z,73568
2019-05-11T07:45:23.987Z,77728
2019-05-11T07:46:07.542Z,78944
2019-05-11T07:46:48.045Z,44672
2019-05-11T07:47:27.758Z,26528
2019-05-11T07:48:08.115Z,24384
2019-05-11T07:48:48.705Z,25536
2019-05-11T07:52:28.796Z,25920
2019-05-11T07:53:09.071Z,37888
2019-05-11T07:53:49.741Z,58944
2019-05-11T07:54:30.514Z,33280
2019-05-11T07:55:11.068Z,40064
2019-05-11T07:58:25.177Z,49376
2019-05-11T07:59:07.904Z,41888
2019-05-11T07:59:48.406Z,37632
2019-05-11T08:00:28.006Z,29504
2019-05-11T08:01:08.627Z,26272
2019-05-11T08:01:49.578Z,25632
2019-05-11T08:02:32.375Z,23520
2019-05-11T08:06:35.949Z,19264
2019-05-11T08:07:18.060Z,19584
2019-05-11T08:07:59.480Z,18912
2019-05-11T08:08:40.190Z,18752
2019-05-11T08:12:05.572Z,17024
2019-05-11T08:12:48.033Z,17120
2019-05-11T08:13:28.198Z,17024
2019-05-11T08:14:07.800Z,16992
2019-05-11T08:14:57.426Z,16992
2019-05-11T08:15:28.592Z,16960
2019-05-11T08:16:09.135Z,16800
2019-05-11T08:16:50.103Z,14868
2019-05-11T08:22:14.814Z,14592
2019-05-11T08:22:55.518Z,15008
2019-05-11T08:23:37.683Z,14876
2019-05-11T08:24:17.970Z,15072
2019-05-11T08:24:58.542Z,14540
2019-05-11T08:25:38.038Z,14444
2019-05-11T08:26:19.113Z,14904
2019-05-11T08:26:59.097Z,14332
2019-05-11T08:27:39.693Z,13664
2019-05-11T08:33:45.103Z,12576
2019-05-11T08:34:25.797Z,12804
2019-05-11T08:35:08.544Z,13092
2019-05-11T08:35:48.096Z,12924
2019-05-11T08:36:28.976Z,12840
2019-05-11T08:37:09.343Z,12968
2019-05-11T08:37:50.184Z,11744
2019-05-11T08:43:15.192Z,13040
2019-05-11T08:43:55.757Z,12268
2019-05-11T08:44:37.953Z,11488
2019-05-11T08:45:23.198Z,11892
2019-05-11T08:45:57.902Z,11828
2019-05-11T08:46:38.670Z,11852
2019-05-11T08:47:18.566Z,11772
2019-05-11T08:47:59.151Z,11608
2019-05-11T08:50:15.171Z,9740
2019-05-11T08:50:52.889Z,9412
2019-05-11T08:51:33.496Z,9376
2019-05-11T08:52:14.133Z,9536
2019-05-11T08:52:54.786Z,9536
2019-05-11T08:53:35.365Z,9420
2019-05-11T08:54:18.256Z,9248
2019-05-11T08:54:57.731Z,9092
2019-05-11T08:55:38.119Z,8828
2019-05-11T09:00:22.094Z,8756
2019-05-11T09:01:02.707Z,8896
2019-05-11T09:01:44.737Z,9092
2019-05-11T09:02:24.057Z,9320
2019-05-11T09:05:38.896Z,9696
2019-05-11T09:06:20.324Z,9624
2019-05-11T09:07:01.424Z,9544
2019-05-11T09:07:42.488Z,9304
2019-05-11T09:08:23.488Z,9096
2019-05-11T09:12:03.785Z,7492
2019-05-11T09:12:44.778Z,6844
2019-05-11T09:13:27.612Z,6628
2019-05-11T09:14:08.340Z,6700
2019-05-11T09:14:47.969Z,6960
2019-05-11T09:18:13.166Z,7400
2019-05-11T09:18:54.214Z,7524
2019-05-11T09:19:35.050Z,7656
2019-05-11T09:20:17.747Z,7704
2019-05-11T09:20:57.667Z,7760
2019-05-11T09:21:38.488Z,7676
2019-05-11T09:26:39.506Z,8492
2019-05-11T09:27:20.404Z,8056
2019-05-11T09:28:01.171Z,7840
2019-05-11T09:28:42.161Z,7648
2019-05-11T09:29:22.973Z,7504
2019-05-11T09:30:03.738Z,7392
2019-05-11T09:36:28.497Z,5768
2019-05-11T09:37:08.046Z,5460
2019-05-11T09:37:48.651Z,5248
2019-05-11T09:38:29.095Z,5080
2019-05-11T09:39:09.758Z,4972
2019-05-11T09:39:50.357Z,4932
2019-05-11T09:40:30.983Z,4936
2019-05-11T09:41:12.190Z,4956
2019-05-11T09:47:18.908Z,4856
2019-05-11T09:47:58.303Z,4860
2019-05-11T09:48:38.339Z,4880
2019-05-11T09:49:18.917Z,4896
2019-05-11T09:49:59.535Z,4932
2019-05-11T09:50:40.141Z,4956
2019-05-11T09:51:20.705Z,4956
2019-05-11T09:52:01.258Z,4976
2019-05-11T09:52:41.852Z,5016
2019-05-11T09:58:47.915Z,5564
2019-05-11T09:59:28.289Z,5576
2019-05-11T10:00:08.791Z,5580
2019-05-11T10:00:48.766Z,5584
2019-05-11T10:01:29.662Z,5584
2019-05-11T10:02:09.951Z,5588
2019-05-11T10:02:50.533Z,5620
2019-05-11T10:03:31.117Z,5668
2019-05-11T10:04:11.671Z,5732
2019-05-11T10:10:18.583Z,5512
2019-05-11T10:10:58.108Z,5436
2019-05-11T10:11:39.847Z,5384
2019-05-11T10:12:18.731Z,5356
2019-05-11T10:12:59.311Z,5348
2019-05-11T10:13:39.982Z,5324
2019-05-11T10:14:20.599Z,5300
2019-05-11T10:15:01.196Z,5332
2019-05-11T10:15:41.955Z,5384
2019-05-11T10:19:49.505Z,5588
2019-05-11T10:20:28.611Z,5480
2019-05-11T10:21:08.293Z,5372
2019-05-11T10:21:48.835Z,5292
2019-05-11T10:22:29.397Z,5224
2019-05-11T10:23:09.967Z,5200
2019-05-11T10:23:50.553Z,5200
2019-05-11T10:24:31.119Z,5204
2019-05-11T10:25:11.707Z,5212
2019-05-11T10:31:17.983Z,5348
2019-05-11T10:31:58.653Z,5352
2019-05-11T10:32:38.358Z,5336
2019-05-11T10:33:19.018Z,5300
2019-05-11T10:33:59.562Z,5244
2019-05-11T10:34:40.270Z,5180
2019-05-11T10:35:20.861Z,5116
2019-05-11T10:41:28.411Z,5136
2019-05-11T10:42:08.611Z,5184
2019-05-11T10:42:48.481Z,5240
2019-05-11T10:43:28.893Z,5300
2019-05-11T10:44:09.032Z,5356
2019-05-11T10:44:49.621Z,5392
2019-05-11T10:45:30.185Z,5416
2019-05-11T10:46:19.028Z,5444
2019-05-11T10:46:51.487Z,5492
2019-05-11T10:47:32.064Z,5544
2019-05-11T10:52:58.998Z,5760
2019-05-11T10:53:38.393Z,5768
2019-05-11T10:54:18.775Z,5772
2019-05-11T10:54:58.843Z,5772
2019-05-11T10:55:39.410Z,5768
2019-05-11T10:56:20.061Z,5760
2019-05-11T10:57:00.637Z,5744
2019-05-11T10:57:41.333Z,5732
2019-05-11T10:58:22.002Z,5720
2019-05-11T11:03:48.300Z,5816
2019-05-11T11:04:28.742Z,5856
2019-05-11T11:05:08.463Z,5884
2019-05-11T11:05:49.035Z,5888
2019-05-11T11:06:29.646Z,5888
2019-05-11T11:07:10.200Z,5888
2019-05-11T11:07:50.792Z,5892
2019-05-11T11:08:31.367Z,5904
2019-05-11T11:09:11.972Z,5908
2019-05-11T11:14:37.713Z,6000
2019-05-11T11:15:18.256Z,6012
2019-05-11T11:16:01.538Z,5988
2019-05-11T11:16:42.559Z,5944
2019-05-11T11:17:19.463Z,5884
2019-05-11T11:18:00.124Z,5808
2019-05-11T11:18:40.707Z,5716
2019-05-11T11:19:21.324Z,5616
2019-05-11T11:20:02.027Z,5504
2019-05-11T11:25:28.325Z,4544
2019-05-11T11:26:08.141Z,4488
2019-05-11T11:26:48.554Z,4456
2019-05-11T11:27:29.105Z,4432
2019-05-11T11:28:09.245Z,4396
2019-05-11T11:28:49.860Z,4344
2019-05-11T11:29:30.454Z,4280
2019-05-11T11:30:11.023Z,4200
2019-05-11T11:30:51.682Z,4124
2019-05-11T11:37:13.628Z,4016
2019-05-11T11:37:54.302Z,4040
2019-05-11T11:38:34.857Z,4056
2019-05-11T11:39:15.454Z,4064
2019-05-11T11:39:57.967Z,4064
2019-05-11T11:40:38.662Z,4052
2019-05-11T11:41:18.446Z,4024
2019-05-11T11:41:58.668Z,3980
2019-05-11T11:48:14.981Z,3700
2019-05-11T11:48:57.857Z,3736
2019-05-11T11:49:38.145Z,3784
2019-05-11T11:50:17.778Z,3820
2019-05-11T11:50:58.471Z,3832
2019-05-11T11:51:38.122Z,3836
2019-05-11T11:52:18.877Z,3828
2019-05-11T11:52:59.406Z,3804
2019-05-11T11:53:39.962Z,3764
2019-05-11T11:59:21.066Z,3580
2019-05-11T12:00:01.633Z,3584
2019-05-11T12:00:42.185Z,3580
2019-05-11T12:01:22.789Z,3564
2019-05-11T12:02:03.343Z,3544
2019-05-11T12:02:43.920Z,3532
2019-05-11T12:03:24.482Z,3516
2019-05-11T12:04:05.118Z,3500
2019-05-11T12:04:45.662Z,3488
2019-05-11T12:10:50.875Z,3132
2019-05-11T12:11:31.508Z,3100
2019-05-11T12:12:12.065Z,3092
2019-05-11T12:12:52.655Z,3096
2019-05-11T12:13:33.203Z,3116
2019-05-11T12:14:13.792Z,3132
2019-05-11T12:14:54.353Z,3148
2019-05-11T12:15:34.939Z,3160
2019-05-11T12:16:17.907Z,3184
2019-05-11T12:22:20.954Z,3284
2019-05-11T12:23:01.500Z,3288
2019-05-11T12:23:42.088Z,3284
2019-05-11T12:24:22.675Z,3292
2019-05-11T12:25:03.232Z,3300
2019-05-11T12:25:43.837Z,3308
2019-05-11T12:26:24.397Z,3332
2019-05-11T12:27:04.945Z,3364
2019-05-11T12:27:45.564Z,3408
2019-05-11T12:28:27.604Z,3472
2019-05-11T12:33:50.952Z,3992
2019-05-11T12:34:31.551Z,4036
2019-05-11T12:35:12.120Z,4088
2019-05-11T12:35:52.726Z,4140
2019-05-11T12:36:33.272Z,4180
2019-05-11T12:37:13.839Z,4204
2019-05-11T12:37:54.465Z,4220
2019-05-11T12:38:35.074Z,4236
2019-05-11T12:39:15.634Z,4248
2019-05-11T12:45:21.030Z,4096
2019-05-11T12:46:01.621Z,4024
2019-05-11T12:46:42.193Z,3928
2019-05-11T12:47:25.096Z,3808
2019-05-11T12:48:03.409Z,3672
2019-05-11T12:48:43.985Z,3528
2019-05-11T12:49:24.567Z,3408
2019-05-11T12:50:05.160Z,3316
2019-05-11T12:50:45.723Z,3252
2019-05-11T12:56:51.140Z,2960
2019-05-11T12:57:31.765Z,2996
2019-05-11T12:58:12.349Z,3036
2019-05-11T12:58:52.927Z,3080
2019-05-11T12:59:33.491Z,3140
2019-05-11T13:00:14.061Z,3168
2019-05-11T13:00:54.653Z,3192
2019-05-11T13:01:35.225Z,3188
2019-05-11T13:02:18.245Z,3164
2019-05-11T13:08:21.245Z,2900
2019-05-11T13:09:01.860Z,2800
2019-05-11T13:09:42.458Z,2720
2019-05-11T13:10:23.110Z,2676
2019-05-11T13:11:03.688Z,2652
2019-05-11T13:11:44.300Z,2652
2019-05-11T13:12:24.935Z,2664
2019-05-11T13:13:05.604Z,2676
2019-05-11T13:13:48.141Z,2692
2019-05-11T13:19:11.083Z,3300
2019-05-11T13:19:51.674Z,3360
2019-05-11T13:20:32.260Z,3368
2019-05-11T13:21:12.841Z,3364
2019-05-11T13:21:53.444Z,3368
2019-05-11T13:22:33.987Z,3396
2019-05-11T13:23:14.583Z,3452
2019-05-11T13:23:55.175Z,3520
2019-05-11T13:24:35.760Z,3588
2019-05-11T13:30:40.984Z,3676
2019-05-11T13:31:21.600Z,3660
2019-05-11T13:32:02.170Z,3648
2019-05-11T13:32:42.749Z,3636
2019-05-11T13:33:23.329Z,3620
2019-05-11T13:34:03.928Z,3596
2019-05-11T13:34:44.517Z,3568
2019-05-11T13:35:25.097Z,3512
2019-05-11T13:36:05.656Z,3448
2019-05-11T13:42:10.884Z,2784
2019-05-11T13:42:51.471Z,2684
2019-05-11T13:43:32.039Z,2604
2019-05-11T13:44:12.606Z,2544
2019-05-11T13:44:53.182Z,2532
2019-05-11T13:45:33.738Z,2556
2019-05-11T13:46:14.321Z,2616
2019-05-11T13:46:54.890Z,2704
2019-05-11T13:47:49.136Z,2796
2019-05-11T13:48:17.642Z,2868
2019-05-11T13:53:40.713Z,2912
2019-05-11T13:54:21.290Z,2932
2019-05-11T13:55:01.844Z,2948
2019-05-11T13:55:42.419Z,2956
2019-05-11T13:56:22.970Z,2952
2019-05-11T13:57:03.536Z,2920
2019-05-11T13:57:44.098Z,2868
2019-05-11T13:58:24.708Z,2832
2019-05-11T13:59:05.321Z,2836
2019-05-11T13:59:47.689Z,2812
2019-05-11T14:05:10.732Z,2800
2019-05-11T14:05:51.270Z,2796
2019-05-11T14:06:31.858Z,2796
2019-05-11T14:07:12.474Z,2784
2019-05-11T14:07:53.058Z,2772
2019-05-11T14:08:33.692Z,2780
2019-05-11T14:09:14.254Z,2804
2019-05-11T14:09:55.045Z,2800
2019-05-11T14:10:37.791Z,2776
2019-05-11T14:16:00.762Z,2496
2019-05-11T14:16:41.773Z,2484
2019-05-11T14:17:22.337Z,2488
2019-05-11T14:18:07.592Z,2512
2019-05-11T14:18:43.603Z,2544
2019-05-11T14:19:24.179Z,2548
2019-05-11T14:20:04.785Z,2548
2019-05-11T14:20:45.346Z,2536
2019-05-11T14:21:27.926Z,2516
2019-05-11T14:26:50.799Z,2424
2019-05-11T14:27:31.492Z,2364
2019-05-11T14:28:12.205Z,2296
2019-05-11T14:28:52.792Z,2236
2019-05-11T14:29:33.432Z,2180
2019-05-11T14:30:14.018Z,2136
2019-05-11T14:30:54.605Z,2108
2019-05-11T14:31:35.201Z,2084
2019-05-11T14:32:17.241Z,2080
2019-05-11T14:37:40.904Z,2144
2019-05-11T14:38:21.510Z,2156
2019-05-11T14:39:02.123Z,2160
2019-05-11T14:39:42.719Z,2144
2019-05-11T14:40:23.285Z,2136
2019-05-11T14:41:03.866Z,2096
2019-05-11T14:41:44.547Z,2044
2019-05-11T14:42:25.157Z,1988
2019-05-11T14:43:05.758Z,1928
2019-05-11T14:49:11.199Z,1896
2019-05-11T14:49:51.795Z,1892
2019-05-11T14:50:32.372Z,1888
2019-05-11T14:51:13.006Z,1876
2019-05-11T14:51:53.641Z,1868
2019-05-11T14:52:34.324Z,1856
2019-05-11T14:53:15.065Z,1848
2019-05-11T14:53:57.281Z,1844
2019-05-11T15:00:01.294Z,1988
2019-05-11T15:00:41.908Z,1984
2019-05-11T15:01:22.491Z,1988
2019-05-11T15:02:03.086Z,1988
2019-05-11T15:02:43.746Z,1976
2019-05-11T15:03:24.360Z,1976
2019-05-11T15:04:04.940Z,1976
2019-05-11T15:04:45.567Z,1976
2019-05-11T15:05:28.134Z,1984
2019-05-11T15:10:51.023Z,2228
2019-05-11T15:11:31.668Z,2272
2019-05-11T15:12:12.232Z,2304
2019-05-11T15:12:52.863Z,2328
2019-05-11T15:13:33.438Z,2348
2019-05-11T15:14:14.041Z,2360
2019-05-11T15:14:54.646Z,2356
2019-05-11T15:15:35.226Z,2336
2019-05-11T15:16:15.875Z,2312
2019-05-11T15:21:40.827Z,2044
2019-05-11T15:22:21.389Z,2028
2019-05-11T15:23:01.984Z,2016
2019-05-11T15:23:42.551Z,2016
2019-05-11T15:24:23.113Z,2032
2019-05-11T15:25:03.723Z,2064
2019-05-11T15:25:44.290Z,2108
2019-05-11T15:26:24.856Z,2152
2019-05-11T15:27:05.572Z,2192
2019-05-11T15:27:48.451Z,2212
2019-05-11T15:33:11.252Z,1948
2019-05-11T15:33:51.809Z,1888
2019-05-11T15:34:32.493Z,1820
2019-05-11T15:35:13.106Z,1736
2019-05-11T15:35:53.746Z,1644
2019-05-11T15:36:34.366Z,1548
2019-05-11T15:37:14.946Z,1456
2019-05-11T15:37:55.595Z,1376
2019-05-11T15:44:01.066Z,1088
2019-05-11T15:44:41.666Z,1080
2019-05-11T15:45:22.293Z,1080
2019-05-11T15:46:02.905Z,1080
2019-05-11T15:46:43.711Z,1080
2019-05-11T15:47:24.340Z,1080
2019-05-11T15:48:05.000Z,1084
2019-05-11T15:48:56.425Z,1092
2019-05-11T15:49:28.090Z,1100
2019-05-11T15:54:51.544Z,1104
2019-05-11T15:55:32.295Z,1096
2019-05-11T15:56:12.856Z,1088
2019-05-11T15:56:53.528Z,1084
2019-05-11T15:57:34.143Z,1080
2019-05-11T15:58:14.789Z,1080
2019-05-11T15:58:57.479Z,1084
2019-05-11T15:59:35.989Z,1096
2019-05-11T16:05:00.834Z,1176
2019-05-11T16:05:41.449Z,1168
2019-05-11T16:06:22.047Z,1156
2019-05-11T16:07:02.644Z,1136
2019-05-11T16:07:43.316Z,1108
2019-05-11T16:08:23.979Z,1072
2019-05-11T16:09:04.651Z,1024
2019-05-11T16:12:18.614Z,772
2019-05-11T16:12:59.221Z,740
2019-05-11T16:13:39.761Z,720
2019-05-11T16:14:20.328Z,704
2019-05-11T16:15:00.915Z,692
2019-05-11T16:15:41.534Z,684
2019-05-11T16:16:22.100Z,680
2019-05-11T16:17:02.928Z,676
2019-05-11T16:17:43.500Z,688
2019-05-11T16:21:18.147Z,784
2019-05-11T16:21:58.350Z,816
2019-05-11T16:22:38.926Z,848
2019-05-11T16:23:20.172Z,884
2019-05-11T16:24:00.076Z,920
2019-05-11T16:24:40.660Z,952
2019-05-11T16:25:21.214Z,976
2019-05-11T16:26:01.859Z,996
2019-05-11T16:26:42.526Z,1000
2019-05-11T16:32:48.195Z,908
2019-05-11T16:33:28.529Z,904
2019-05-11T16:34:09.130Z,908
2019-05-11T16:34:49.712Z,908
2019-05-11T16:35:30.392Z,920
2019-05-11T16:36:11.012Z,932
2019-05-11T16:36:51.631Z,952
2019-05-11T16:37:32.242Z,968
2019-05-11T16:38:12.845Z,996